ZPPP/KMG METAR and TAF weather

Enter ICAO airport designator
Station Type Date Time Source
ZPPP METAR 2019/10/22 16:00 UTC NOAA

ZPPP 221600Z 00000MPS CAVOK 14/11 Q1019 NOSIG


Station Type Date Time Source
ZPPP Decoded METAR 2019/10/22 16:00 UTC NOAA

Kunming, China (ZPPP) 25-01N 102-41E 1892M
Oct 22, 2019 - 12:00 PM EDT / 2019.10.22 1600 UTC
Wind: Calm:0
Visibility: greater than 7 mile(s):0
Temperature: 57 F (14 C)
Dew Point: 51 F (11 C)
Relative Humidity: 82%
Pressure (altimeter): 30.09 in. Hg (1019 hPa)
ob: ZPPP 221600Z 00000MPS CAVOK 14/11 Q1019 NOSIG
cycle: 16

Station Type Date Time Source
ZPPP TAF 2019/10/22 18:03 UTC NOAA

TAF ZPPP 221307Z 2218/2318 23005MPS 9999 SCT026 TX22/2308Z TN11/2223Z
BECMG 2219/2220 04004MPS

Example: see airport list